sensor_id;sensor_type;location;lat;lon;timestamp;pressure;altitude;pressure_sealevel;temperature;humidity
818;BME280;391;51.052;6.954;2022-08-19T00:01:24;100808.44;;;22.56;63.04
818;BME280;391;51.052;6.954;2022-08-19T00:03:31;100812.09;;;22.51;63.21
818;BME280;391;51.052;6.954;2022-08-19T00:05:35;100812.16;;;22.48;63.16
818;BME280;391;51.052;6.954;2022-08-19T00:07:40;100793.75;;;22.39;63.32
818;BME280;391;51.052;6.954;2022-08-19T00:09:45;100802.41;;;22.48;63.35
818;BME280;391;51.052;6.954;2022-08-19T00:11:48;100813.88;;;22.52;63.54
818;BME280;391;51.052;6.954;2022-08-19T00:13:52;100818.31;;;22.50;63.07
818;BME280;391;51.052;6.954;2022-08-19T00:15:57;100816.84;;;22.34;63.02
818;BME280;391;51.052;6.954;2022-08-19T00:18:01;100807.22;;;22.28;63.65
818;BME280;391;51.052;6.954;2022-08-19T00:20:06;100808.91;;;22.32;63.67
818;BME280;391;51.052;6.954;2022-08-19T00:22:10;100808.13;;;22.27;64.11
818;BME280;391;51.052;6.954;2022-08-19T00:24:15;100806.28;;;22.31;63.77
818;BME280;391;51.052;6.954;2022-08-19T00:26:19;100788.91;;;22.11;64.09
818;BME280;391;51.052;6.954;2022-08-19T00:28:23;100805.66;;;22.17;64.02
818;BME280;391;51.052;6.954;2022-08-19T00:30:26;100809.97;;;22.22;64.36
818;BME280;391;51.052;6.954;2022-08-19T00:32:30;100813.47;;;22.26;64.21
818;BME280;391;51.052;6.954;2022-08-19T00:34:35;100816.88;;;22.32;64.03
818;BME280;391;51.052;6.954;2022-08-19T00:36:39;100822.97;;;22.37;63.55
818;BME280;391;51.052;6.954;2022-08-19T00:38:42;100822.13;;;22.37;63.56
818;BME280;391;51.052;6.954;2022-08-19T00:40:47;100823.03;;;22.36;63.74
818;BME280;391;51.052;6.954;2022-08-19T00:42:52;100820.59;;;22.24;63.19
818;BME280;391;51.052;6.954;2022-08-19T00:44:56;100805.88;;;22.03;64.12
818;BME280;391;51.052;6.954;2022-08-19T00:46:59;100810.38;;;21.99;64.20
818;BME280;391;51.052;6.954;2022-08-19T00:49:09;100798.16;;;21.86;65.00
818;BME280;391;51.052;6.954;2022-08-19T00:51:12;100812.41;;;21.82;65.44
818;BME280;391;51.052;6.954;2022-08-19T00:53:20;100805.34;;;21.81;65.48
818;BME280;391;51.052;6.954;2022-08-19T00:55:26;100779.72;;;21.77;65.41
818;BME280;391;51.052;6.954;2022-08-19T00:57:35;100804.50;;;21.78;65.04
818;BME280;391;51.052;6.954;2022-08-19T00:59:40;100810.75;;;21.74;65.33
818;BME280;391;51.052;6.954;2022-08-19T01:02:04;100803.66;;;21.74;65.51
818;BME280;391;51.052;6.954;2022-08-19T01:04:08;100807.44;;;21.59;65.47
818;BME280;391;51.052;6.954;2022-08-19T01:06:11;100805.75;;;21.54;65.63
818;BME280;391;51.052;6.954;2022-08-19T01:08:21;100814.66;;;21.50;66.32
818;BME280;391;51.052;6.954;2022-08-19T01:10:28;100815.66;;;21.41;66.53
818;BME280;391;51.052;6.954;2022-08-19T01:12:39;100819.31;;;21.34;66.09
818;BME280;391;51.052;6.954;2022-08-19T01:14:44;100822.72;;;21.44;67.38
818;BME280;391;51.052;6.954;2022-08-19T01:16:48;100817.31;;;21.48;66.73
818;BME280;391;51.052;6.954;2022-08-19T01:18:56;100819.00;;;21.54;66.52
818;BME280;391;51.052;6.954;2022-08-19T01:21:03;100812.81;;;21.55;66.27
818;BME280;391;51.052;6.954;2022-08-19T01:23:11;100795.41;;;21.37;66.15
818;BME280;391;51.052;6.954;2022-08-19T01:25:18;100806.66;;;21.51;66.88
818;BME280;391;51.052;6.954;2022-08-19T01:27:22;100806.84;;;21.39;66.51
818;BME280;391;51.052;6.954;2022-08-19T01:29:25;100805.13;;;21.35;67.58
818;BME280;391;51.052;6.954;2022-08-19T01:31:29;100806.31;;;21.13;67.48
818;BME280;391;51.052;6.954;2022-08-19T01:33:34;100803.75;;;21.05;67.94
818;BME280;391;51.052;6.954;2022-08-19T01:35:37;100797.63;;;21.02;68.18
818;BME280;391;51.052;6.954;2022-08-19T01:37:50;100801.91;;;21.15;67.73
818;BME280;391;51.052;6.954;2022-08-19T01:39:55;100798.41;;;21.08;67.52
818;BME280;391;51.052;6.954;2022-08-19T01:41:58;100810.75;;;21.13;68.83
818;BME280;391;51.052;6.954;2022-08-19T01:44:06;100798.31;;;21.16;67.85
818;BME280;391;51.052;6.954;2022-08-19T01:46:20;100801.94;;;21.12;68.15
818;BME280;391;51.052;6.954;2022-08-19T01:48:26;100802.88;;;21.03;68.16
818;BME280;391;51.052;6.954;2022-08-19T01:50:31;100797.63;;;21.02;69.10
818;BME280;391;51.052;6.954;2022-08-19T01:52:36;100791.41;;;21.03;68.15
818;BME280;391;51.052;6.954;2022-08-19T01:54:39;100773.16;;;20.80;68.35
818;BME280;391;51.052;6.954;2022-08-19T01:56:44;100795.97;;;20.90;69.32
818;BME280;391;51.052;6.954;2022-08-19T01:58:49;100784.53;;;20.88;68.95
818;BME280;391;51.052;6.954;2022-08-19T02:00:54;100782.75;;;20.87;69.22
818;BME280;391;51.052;6.954;2022-08-19T02:02:58;100782.78;;;20.86;68.29
818;BME280;391;51.052;6.954;2022-08-19T02:05:04;100767.94;;;20.71;69.42
818;BME280;391;51.052;6.954;2022-08-19T02:07:12;100787.25;;;20.82;70.27
818;BME280;391;51.052;6.954;2022-08-19T02:09:15;100788.03;;;20.90;68.94
818;BME280;391;51.052;6.954;2022-08-19T02:11:21;100802.22;;;20.86;68.92
818;BME280;391;51.052;6.954;2022-08-19T02:13:27;100798.00;;;20.70;69.69
818;BME280;391;51.052;6.954;2022-08-19T02:15:30;100802.34;;;20.74;69.99
818;BME280;391;51.052;6.954;2022-08-19T02:17:34;100805.78;;;20.84;69.03
818;BME280;391;51.052;6.954;2022-08-19T02:19:37;100804.97;;;20.80;69.07
818;BME280;391;51.052;6.954;2022-08-19T02:21:42;100798.78;;;20.78;69.12
818;BME280;391;51.052;6.954;2022-08-19T02:23:46;100798.00;;;20.70;69.68
818;BME280;391;51.052;6.954;2022-08-19T02:25:51;100775.22;;;20.54;70.03
818;BME280;391;51.052;6.954;2022-08-19T02:27:55;100795.41;;;20.67;69.83
818;BME280;391;51.052;6.954;2022-08-19T02:30:00;100800.59;;;20.75;69.67
818;BME280;391;51.052;6.954;2022-08-19T02:32:04;100797.97;;;20.72;69.67
818;BME280;391;51.052;6.954;2022-08-19T02:34:07;100796.09;;;20.83;70.09
818;BME280;391;51.052;6.954;2022-08-19T02:36:12;100794.25;;;20.89;69.57
818;BME280;391;51.052;6.954;2022-08-19T02:38:16;100803.94;;;20.90;68.77
818;BME280;391;51.052;6.954;2022-08-19T02:40:29;100808.38;;;20.87;69.54
818;BME280;391;51.052;6.954;2022-08-19T02:42:35;100812.84;;;20.86;70.04
818;BME280;391;51.052;6.954;2022-08-19T02:44:39;100807.56;;;20.82;69.44
818;BME280;391;51.052;6.954;2022-08-19T02:46:45;100809.38;;;20.80;69.37
818;BME280;391;51.052;6.954;2022-08-19T02:48:54;100810.41;;;20.65;69.62
818;BME280;391;51.052;6.954;2022-08-19T02:50:59;100812.25;;;20.58;70.06
818;BME280;391;51.052;6.954;2022-08-19T02:53:02;100814.81;;;20.68;70.57
818;BME280;391;51.052;6.954;2022-08-19T02:55:07;100813.94;;;20.67;69.81
818;BME280;391;51.052;6.954;2022-08-19T02:57:10;100829.72;;;20.76;69.21
818;BME280;391;51.052;6.954;2022-08-19T02:59:14;100825.47;;;20.62;69.26
818;BME280;391;51.052;6.954;2022-08-19T03:01:22;100826.38;;;20.59;69.66
818;BME280;391;51.052;6.954;2022-08-19T03:03:27;100826.28;;;20.68;70.35
818;BME280;391;51.052;6.954;2022-08-19T03:05:31;100821.91;;;20.66;69.33
818;BME280;391;51.052;6.954;2022-08-19T03:07:55;100816.66;;;20.59;69.97
818;BME280;391;51.052;6.954;2022-08-19T03:09:58;100818.50;;;20.54;69.97
818;BME280;391;51.052;6.954;2022-08-19T03:12:02;100814.09;;;20.52;70.27
818;BME280;391;51.052;6.954;2022-08-19T03:14:07;100812.34;;;20.51;70.27
818;BME280;391;51.052;6.954;2022-08-19T03:16:12;100820.22;;;20.57;70.08
818;BME280;391;51.052;6.954;2022-08-19T03:18:16;100811.41;;;20.56;69.47
818;BME280;391;51.052;6.954;2022-08-19T03:20:21;100813.22;;;20.50;70.72
818;BME280;391;51.052;6.954;2022-08-19T03:22:24;100816.69;;;20.58;70.38
818;BME280;391;51.052;6.954;2022-08-19T03:24:28;100825.53;;;20.57;69.70
818;BME280;391;51.052;6.954;2022-08-19T03:26:33;100816.63;;;20.63;70.03
818;BME280;391;51.052;6.954;2022-08-19T03:28:37;100817.72;;;20.43;69.83
818;BME280;391;51.052;6.954;2022-08-19T03:30:42;100824.09;;;20.17;70.50
818;BME280;391;51.052;6.954;2022-08-19T03:32:45;100835.75;;;19.97;70.87
818;BME280;391;51.052;6.954;2022-08-19T03:34:54;100832.34;;;19.83;71.61
818;BME280;391;51.052;6.954;2022-08-19T03:37:03;100827.06;;;19.80;71.53
818;BME280;391;51.052;6.954;2022-08-19T03:39:07;100828.72;;;19.95;72.96
818;BME280;391;51.052;6.954;2022-08-19T03:41:13;100826.00;;;20.05;72.31
818;BME280;391;51.052;6.954;2022-08-19T03:43:17;100827.63;;;20.19;71.66
818;BME280;391;51.052;6.954;2022-08-19T03:45:21;100835.66;;;20.10;70.99
818;BME280;391;51.052;6.954;2022-08-19T03:47:25;100840.06;;;20.07;71.85
818;BME280;391;51.052;6.954;2022-08-19T03:49:30;100841.75;;;20.18;71.81
818;BME280;391;51.052;6.954;2022-08-19T03:51:37;100833.69;;;20.34;71.73
818;BME280;391;51.052;6.954;2022-08-19T03:53:42;100832.00;;;20.27;71.30
818;BME280;391;51.052;6.954;2022-08-19T03:55:46;100839.09;;;20.21;71.21
818;BME280;391;51.052;6.954;2022-08-19T03:57:49;100844.34;;;20.24;71.69
818;BME280;391;51.052;6.954;2022-08-19T04:00:00;100848.78;;;20.22;71.45
818;BME280;391;51.052;6.954;2022-08-19T04:02:15;100840.84;;;20.22;71.31
818;BME280;391;51.052;6.954;2022-08-19T04:04:18;100839.06;;;20.28;71.54
818;BME280;391;51.052;6.954;2022-08-19T04:06:24;100843.47;;;20.29;71.24
818;BME280;391;51.052;6.954;2022-08-19T04:08:27;100846.94;;;20.33;71.33
818;BME280;391;51.052;6.954;2022-08-19T04:10:35;100841.63;;;20.36;70.88
818;BME280;391;51.052;6.954;2022-08-19T04:12:38;100838.91;;;20.45;71.74
818;BME280;391;51.052;6.954;2022-08-19T04:14:42;100837.88;;;20.61;70.96
818;BME280;391;51.052;6.954;2022-08-19T04:16:51;100837.09;;;20.47;69.82
818;BME280;391;51.052;6.954;2022-08-19T04:18:56;100845.28;;;20.17;70.64
818;BME280;391;51.052;6.954;2022-08-19T04:21:03;100850.66;;;20.07;72.36
818;BME280;391;51.052;6.954;2022-08-19T04:23:07;100855.06;;;20.13;70.60
818;BME280;391;51.052;6.954;2022-08-19T04:25:10;100863.03;;;20.04;71.45
818;BME280;391;51.052;6.954;2022-08-19T04:27:15;100855.13;;;20.02;71.15
818;BME280;391;51.052;6.954;2022-08-19T04:29:21;100841.94;;;19.95;72.15
818;BME280;391;51.052;6.954;2022-08-19T04:31:29;100850.59;;;20.20;71.56
818;BME280;391;51.052;6.954;2022-08-19T04:33:33;100842.63;;;20.23;71.00
818;BME280;391;51.052;6.954;2022-08-19T04:35:38;100796.00;;;20.02;71.18
818;BME280;391;51.052;6.954;2022-08-19T04:37:42;100850.50;;;20.30;70.22
818;BME280;391;51.052;6.954;2022-08-19T04:39:46;100855.84;;;20.26;70.65
818;BME280;391;51.052;6.954;2022-08-19T04:42:07;100860.28;;;20.22;70.74
818;BME280;391;51.052;6.954;2022-08-19T04:44:34;100866.47;;;20.18;71.06
818;BME280;391;51.052;6.954;2022-08-19T04:46:48;100838.38;;;20.03;71.04
818;BME280;391;51.052;6.954;2022-08-19T04:48:53;100860.28;;;20.18;71.68
818;BME280;391;51.052;6.954;2022-08-19T04:50:58;100855.84;;;20.26;71.41
818;BME280;391;51.052;6.954;2022-08-19T04:53:02;100854.88;;;20.33;71.02
818;BME280;391;51.052;6.954;2022-08-19T04:55:08;100873.41;;;20.36;70.29
818;BME280;391;51.052;6.954;2022-08-19T04:57:11;100852.31;;;20.22;70.14
818;BME280;391;51.052;6.954;2022-08-19T04:59:15;100874.41;;;20.17;70.40
818;BME280;391;51.052;6.954;2022-08-19T05:01:22;100870.16;;;20.00;71.48
818;BME280;391;51.052;6.954;2022-08-19T05:03:26;100886.91;;;19.99;71.37
818;BME280;391;51.052;6.954;2022-08-19T05:05:32;100879.84;;;20.03;72.29
818;BME280;391;51.052;6.954;2022-08-19T05:07:46;100896.66;;;19.93;71.93
818;BME280;391;51.052;6.954;2022-08-19T05:09:50;100894.97;;;19.83;72.38
818;BME280;391;51.052;6.954;2022-08-19T05:12:00;100891.38;;;19.93;73.17
818;BME280;391;51.052;6.954;2022-08-19T05:14:03;100896.63;;;19.99;72.19
818;BME280;391;51.052;6.954;2022-08-19T05:16:07;100889.47;;;20.13;71.89
818;BME280;391;51.052;6.954;2022-08-19T05:18:11;100892.88;;;20.30;71.64
818;BME280;391;51.052;6.954;2022-08-19T05:20:32;100903.47;;;20.32;71.13
818;BME280;391;51.052;6.954;2022-08-19T05:22:54;100904.38;;;20.32;72.16
818;BME280;391;51.052;6.954;2022-08-19T05:24:57;100904.31;;;20.38;71.92
818;BME280;391;51.052;6.954;2022-08-19T05:27:14;100902.53;;;20.37;72.72
818;BME280;391;51.052;6.954;2022-08-19T05:29:19;100907.84;;;20.37;72.93
818;BME280;391;51.052;6.954;2022-08-19T05:31:24;100910.50;;;20.34;73.56
818;BME280;391;51.052;6.954;2022-08-19T05:33:29;100914.00;;;20.36;74.13
818;BME280;391;51.052;6.954;2022-08-19T05:35:33;100913.09;;;20.45;74.20
818;BME280;391;51.052;6.954;2022-08-19T05:37:37;100907.78;;;20.43;73.66
818;BME280;391;51.052;6.954;2022-08-19T05:39:42;100904.31;;;20.37;74.37
818;BME280;391;51.052;6.954;2022-08-19T05:41:54;100896.44;;;20.23;75.11
818;BME280;391;51.052;6.954;2022-08-19T05:44:02;100882.38;;;20.18;75.34
818;BME280;391;51.052;6.954;2022-08-19T05:46:16;100900.84;;;20.29;75.15
818;BME280;391;51.052;6.954;2022-08-19T05:48:30;100892.94;;;20.17;75.44
818;BME280;391;51.052;6.954;2022-08-19T05:50:35;100906.13;;;20.32;75.49
818;BME280;391;51.052;6.954;2022-08-19T05:52:39;100907.84;;;20.36;75.64
818;BME280;391;51.052;6.954;2022-08-19T05:54:51;100910.53;;;20.30;75.93
818;BME280;391;51.052;6.954;2022-08-19T05:56:57;100914.94;;;20.31;76.33
818;BME280;391;51.052;6.954;2022-08-19T05:59:01;100907.84;;;20.39;75.78
818;BME280;391;51.052;6.954;2022-08-19T06:01:09;100907.81;;;20.42;76.30
818;BME280;391;51.052;6.954;2022-08-19T06:03:13;100902.44;;;20.46;76.00
818;BME280;391;51.052;6.954;2022-08-19T06:05:18;100905.22;;;20.34;76.13
818;BME280;391;51.052;6.954;2022-08-19T06:07:22;100909.59;;;20.37;76.27
818;BME280;391;51.052;6.954;2022-08-19T06:09:26;100912.09;;;20.52;76.64
818;BME280;391;51.052;6.954;2022-08-19T06:11:34;100894.63;;;20.34;76.35
818;BME280;391;51.052;6.954;2022-08-19T06:13:37;100912.19;;;20.43;76.43
818;BME280;391;51.052;6.954;2022-08-19T06:15:41;100907.78;;;20.45;76.55
818;BME280;391;51.052;6.954;2022-08-19T06:17:46;100906.03;;;20.44;76.70
818;BME280;391;51.052;6.954;2022-08-19T06:19:49;100900.66;;;20.51;76.54
818;BME280;391;51.052;6.954;2022-08-19T06:21:54;100887.41;;;20.51;76.32
818;BME280;391;51.052;6.954;2022-08-19T06:23:59;100899.81;;;20.46;76.87
818;BME280;391;51.052;6.954;2022-08-19T06:26:02;100884.81;;;20.44;76.97
818;BME280;391;51.052;6.954;2022-08-19T06:28:06;100897.16;;;20.48;76.34
818;BME280;391;51.052;6.954;2022-08-19T06:30:17;100883.13;;;20.37;76.48
818;BME280;391;51.052;6.954;2022-08-19T06:32:20;100899.72;;;20.57;75.94
818;BME280;391;51.052;6.954;2022-08-19T06:34:24;100895.13;;;20.74;76.00
818;BME280;391;51.052;6.954;2022-08-19T06:36:32;100903.09;;;20.71;75.42
818;BME280;391;51.052;6.954;2022-08-19T06:38:37;100893.63;;;20.46;75.94
818;BME280;391;51.052;6.954;2022-08-19T06:40:41;100893.59;;;20.49;76.46
818;BME280;391;51.052;6.954;2022-08-19T06:42:49;100898.97;;;20.41;76.67
818;BME280;391;51.052;6.954;2022-08-19T06:44:56;100895.41;;;20.42;76.65
818;BME280;391;51.052;6.954;2022-08-19T06:47:02;100903.34;;;20.48;76.25
818;BME280;391;51.052;6.954;2022-08-19T06:49:16;100898.03;;;20.47;76.45
818;BME280;391;51.052;6.954;2022-08-19T06:51:21;100901.53;;;20.50;76.56
818;BME280;391;51.052;6.954;2022-08-19T06:53:26;100908.59;;;20.50;77.32
818;BME280;391;51.052;6.954;2022-08-19T06:55:31;100908.44;;;20.68;75.89
818;BME280;391;51.052;6.954;2022-08-19T06:57:37;100896.91;;;20.72;74.77
818;BME280;391;51.052;6.954;2022-08-19T06:59:40;100909.38;;;20.64;75.88
818;BME280;391;51.052;6.954;2022-08-19T07:01:46;100912.00;;;20.67;76.83
818;BME280;391;51.052;6.954;2022-08-19T07:03:50;100925.22;;;20.69;75.34
818;BME280;391;51.052;6.954;2022-08-19T07:05:54;100914.63;;;20.67;75.79
818;BME280;391;51.052;6.954;2022-08-19T07:07:57;100918.09;;;20.75;75.66
818;BME280;391;51.052;6.954;2022-08-19T07:10:07;100922.50;;;20.76;75.96
818;BME280;391;51.052;6.954;2022-08-19T07:12:13;100917.84;;;20.98;75.94
818;BME280;391;51.052;6.954;2022-08-19T07:14:21;100918.69;;;21.01;75.28
818;BME280;391;51.052;6.954;2022-08-19T07:16:25;100926.59;;;21.07;74.90
818;BME280;391;51.052;6.954;2022-08-19T07:18:31;100924.84;;;21.03;74.88
818;BME280;391;51.052;6.954;2022-08-19T07:20:36;100924.06;;;20.94;74.51
818;BME280;391;51.052;6.954;2022-08-19T07:22:40;100933.97;;;20.75;76.37
818;BME280;391;51.052;6.954;2022-08-19T07:24:43;100933.94;;;20.83;76.47
818;BME280;391;51.052;6.954;2022-08-19T07:26:54;100928.50;;;20.95;75.71
818;BME280;391;51.052;6.954;2022-08-19T07:29:00;100937.31;;;20.95;75.50
818;BME280;391;51.052;6.954;2022-08-19T07:31:05;100928.50;;;20.93;75.43
818;BME280;391;51.052;6.954;2022-08-19T07:33:10;100940.88;;;20.94;75.37
818;BME280;391;51.052;6.954;2022-08-19T07:35:16;100950.63;;;20.92;76.06
818;BME280;391;51.052;6.954;2022-08-19T07:37:21;100952.31;;;20.96;76.36
818;BME280;391;51.052;6.954;2022-08-19T07:39:27;100951.41;;;21.00;75.46
818;BME280;391;51.052;6.954;2022-08-19T07:41:31;100956.81;;;20.91;75.36
818;BME280;391;51.052;6.954;2022-08-19T07:43:35;100959.56;;;20.79;75.69
818;BME280;391;51.052;6.954;2022-08-19T07:45:39;100966.66;;;20.79;75.42
818;BME280;391;51.052;6.954;2022-08-19T07:47:44;100965.03;;;20.64;75.72
818;BME280;391;51.052;6.954;2022-08-19T07:49:51;100972.16;;;20.53;76.79
818;BME280;391;51.052;6.954;2022-08-19T07:51:57;100952.72;;;20.52;76.47
818;BME280;391;51.052;6.954;2022-08-19T07:54:02;100972.03;;;20.68;76.13
818;BME280;391;51.052;6.954;2022-08-19T07:56:06;100977.41;;;20.59;76.51
818;BME280;391;51.052;6.954;2022-08-19T07:58:11;100976.53;;;20.58;76.62
818;BME280;391;51.052;6.954;2022-08-19T08:00:15;100979.09;;;20.69;76.79
818;BME280;391;51.052;6.954;2022-08-19T08:02:27;100974.72;;;20.62;76.74
818;BME280;391;51.052;6.954;2022-08-19T08:04:31;100970.25;;;20.70;76.48
818;BME280;391;51.052;6.954;2022-08-19T08:06:53;100982.50;;;20.86;76.30
818;BME280;391;51.052;6.954;2022-08-19T08:09:17;100976.19;;;20.96;75.81
818;BME280;391;51.052;6.954;2022-08-19T08:11:23;100982.44;;;20.92;75.16
818;BME280;391;51.052;6.954;2022-08-19T08:13:31;100978.94;;;20.84;75.84
818;BME280;391;51.052;6.954;2022-08-19T08:15:37;100985.09;;;20.89;75.71
818;BME280;391;51.052;6.954;2022-08-19T08:17:46;100981.47;;;20.98;76.02
818;BME280;391;51.052;6.954;2022-08-19T08:19:52;100974.53;;;20.86;75.85
818;BME280;391;51.052;6.954;2022-08-19T08:21:58;100980.53;;;21.03;76.18
818;BME280;391;51.052;6.954;2022-08-19T08:24:02;100981.28;;;21.19;75.27
818;BME280;391;51.052;6.954;2022-08-19T08:26:05;100950.44;;;21.12;74.60
818;BME280;391;51.052;6.954;2022-08-19T08:28:09;100984.69;;;21.32;74.76
818;BME280;391;51.052;6.954;2022-08-19T08:30:21;100983.56;;;21.51;74.68
818;BME280;391;51.052;6.954;2022-08-19T08:32:25;100982.66;;;21.56;73.96
818;BME280;391;51.052;6.954;2022-08-19T08:34:30;100976.34;;;21.65;73.78
818;BME280;391;51.052;6.954;2022-08-19T08:36:36;100974.59;;;21.62;73.62
818;BME280;391;51.052;6.954;2022-08-19T08:38:44;100982.44;;;21.70;73.08
818;BME280;391;51.052;6.954;2022-08-19T08:40:50;100982.38;;;21.76;73.17
818;BME280;391;51.052;6.954;2022-08-19T08:43:02;100978.69;;;21.88;73.01
818;BME280;391;51.052;6.954;2022-08-19T08:45:14;100989.13;;;22.03;72.94
818;BME280;391;51.052;6.954;2022-08-19T08:47:21;100952.13;;;21.91;71.92
818;BME280;391;51.052;6.954;2022-08-19T08:49:31;100992.59;;;22.09;71.99
818;BME280;391;51.052;6.954;2022-08-19T08:51:38;100948.41;;;22.02;71.23
818;BME280;391;51.052;6.954;2022-08-19T08:53:51;100984.31;;;22.29;71.67
818;BME280;391;51.052;6.954;2022-08-19T08:55:58;100979.44;;;22.57;71.43
818;BME280;391;51.052;6.954;2022-08-19T08:58:04;100976.78;;;22.58;70.73
818;BME280;391;51.052;6.954;2022-08-19T09:00:13;100974.66;;;22.80;70.67
818;BME280;391;51.052;6.954;2022-08-19T09:02:18;100975.53;;;22.81;68.88
818;BME280;391;51.052;6.954;2022-08-19T09:04:22;100973.94;;;22.71;69.39
818;BME280;391;51.052;6.954;2022-08-19T09:06:33;100975.50;;;22.84;68.18
818;BME280;391;51.052;6.954;2022-08-19T09:08:48;100979.81;;;22.91;68.32
818;BME280;391;51.052;6.954;2022-08-19T09:10:58;100973.50;;;22.95;68.15
818;BME280;391;51.052;6.954;2022-08-19T09:13:16;100977.03;;;22.95;67.80
818;BME280;391;51.052;6.954;2022-08-19T09:15:31;100963.13;;;22.81;67.39
818;BME280;391;51.052;6.954;2022-08-19T09:17:38;100976.28;;;22.89;67.30
818;BME280;391;51.052;6.954;2022-08-19T09:19:52;100968.22;;;22.93;66.41
818;BME280;391;51.052;6.954;2022-08-19T09:21:57;100978.75;;;22.98;66.01
818;BME280;391;51.052;6.954;2022-08-19T09:24:03;100976.94;;;23.01;65.82
818;BME280;391;51.052;6.954;2022-08-19T09:26:08;100969.06;;;22.97;65.26
818;BME280;391;51.052;6.954;2022-08-19T09:28:17;100978.56;;;23.08;65.47
818;BME280;391;51.052;6.954;2022-08-19T09:30:31;100963.50;;;23.07;65.54
818;BME280;391;51.052;6.954;2022-08-19T09:32:35;100960.72;;;23.13;64.69
818;BME280;391;51.052;6.954;2022-08-19T09:34:38;100972.72;;;23.36;64.25
818;BME280;391;51.052;6.954;2022-08-19T09:36:45;100973.53;;;23.39;63.06
818;BME280;391;51.052;6.954;2022-08-19T09:38:50;100969.94;;;23.45;62.78
818;BME280;391;51.052;6.954;2022-08-19T09:40:54;100973.28;;;23.54;61.94
818;BME280;391;51.052;6.954;2022-08-19T09:42:59;100969.72;;;23.54;61.50
818;BME280;391;51.052;6.954;2022-08-19T09:45:11;100981.09;;;23.62;61.92
818;BME280;391;51.052;6.954;2022-08-19T09:47:14;100984.69;;;23.61;61.79
818;BME280;391;51.052;6.954;2022-08-19T09:49:21;100983.25;;;23.45;61.26
818;BME280;391;51.052;6.954;2022-08-19T09:51:27;100981.34;;;23.51;61.46
818;BME280;391;51.052;6.954;2022-08-19T09:53:31;100964.28;;;23.60;60.74
818;BME280;391;51.052;6.954;2022-08-19T09:55:41;100980.94;;;23.69;59.92
818;BME280;391;51.052;6.954;2022-08-19T09:57:45;100973.91;;;23.65;59.24
818;BME280;391;51.052;6.954;2022-08-19T09:59:48;100979.84;;;23.80;60.07
818;BME280;391;51.052;6.954;2022-08-19T10:01:52;100976.06;;;23.90;59.04
818;BME280;391;51.052;6.954;2022-08-19T10:04:05;100977.94;;;23.85;58.88
818;BME280;391;51.052;6.954;2022-08-19T10:06:25;100980.03;;;24.12;57.72
818;BME280;391;51.052;6.954;2022-08-19T10:08:48;100975.31;;;24.25;57.23
818;BME280;391;51.052;6.954;2022-08-19T10:10:55;100974.28;;;24.29;55.74
818;BME280;391;51.052;6.954;2022-08-19T10:13:00;100979.63;;;24.29;55.73
818;BME280;391;51.052;6.954;2022-08-19T10:15:05;100974.38;;;24.26;56.35
818;BME280;391;51.052;6.954;2022-08-19T10:17:09;100922.72;;;24.31;56.32
818;BME280;391;51.052;6.954;2022-08-19T10:19:23;100969.06;;;24.61;56.55
818;BME280;391;51.052;6.954;2022-08-19T10:21:29;100955.47;;;24.71;56.07
818;BME280;391;51.052;6.954;2022-08-19T10:23:35;100941.81;;;24.85;55.66
818;BME280;391;51.052;6.954;2022-08-19T10:25:39;100946.97;;;24.91;55.33
818;BME280;391;51.052;6.954;2022-08-19T10:27:46;100949.03;;;25.14;55.19
818;BME280;391;51.052;6.954;2022-08-19T10:29:52;100948.41;;;25.35;53.84
818;BME280;391;51.052;6.954;2022-08-19T10:31:56;100951.56;;;25.51;53.67
818;BME280;391;51.052;6.954;2022-08-19T10:34:03;100950.28;;;25.64;53.02
818;BME280;391;51.052;6.954;2022-08-19T10:36:09;100949.47;;;25.62;53.11
818;BME280;391;51.052;6.954;2022-08-19T10:38:13;100954.75;;;25.63;52.64
818;BME280;391;51.052;6.954;2022-08-19T10:40:17;100955.66;;;25.62;52.11
818;BME280;391;51.052;6.954;2022-08-19T10:42:20;100958.09;;;25.71;52.53
818;BME280;391;51.052;6.954;2022-08-19T10:44:25;100948.84;;;25.52;52.38
818;BME280;391;51.052;6.954;2022-08-19T10:46:36;100960.88;;;25.35;53.42
818;BME280;391;51.052;6.954;2022-08-19T10:48:41;100944.41;;;25.20;53.64
818;BME280;391;51.052;6.954;2022-08-19T10:50:45;100948.78;;;25.54;52.59
818;BME280;391;51.052;6.954;2022-08-19T10:53:07;100951.44;;;25.85;52.10
818;BME280;391;51.052;6.954;2022-08-19T10:55:11;100954.31;;;26.06;50.93
818;BME280;391;51.052;6.954;2022-08-19T10:57:32;100948.56;;;26.20;51.02
818;BME280;391;51.052;6.954;2022-08-19T10:59:57;100940.03;;;26.61;49.84
818;BME280;391;51.052;6.954;2022-08-19T11:02:03;100941.97;;;26.84;48.78
818;BME280;391;51.052;6.954;2022-08-19T11:04:06;100937.56;;;26.83;48.79
818;BME280;391;51.052;6.954;2022-08-19T11:06:13;100937.50;;;26.85;48.86
818;BME280;391;51.052;6.954;2022-08-19T11:08:16;100937.59;;;26.81;48.61
818;BME280;391;51.052;6.954;2022-08-19T11:10:25;100928.06;;;26.73;48.77
818;BME280;391;51.052;6.954;2022-08-19T11:12:28;100940.03;;;26.89;49.33
818;BME280;391;51.052;6.954;2022-08-19T11:14:32;100932.75;;;26.93;48.97
818;BME280;391;51.052;6.954;2022-08-19T11:16:38;100932.66;;;26.96;48.02
818;BME280;391;51.052;6.954;2022-08-19T11:18:43;100934.09;;;26.79;48.87
818;BME280;391;51.052;6.954;2022-08-19T11:20:47;100939.19;;;26.61;49.54
818;BME280;391;51.052;6.954;2022-08-19T11:22:52;100940.44;;;26.51;49.51
818;BME280;391;51.052;6.954;2022-08-19T11:24:56;100927.59;;;26.34;50.01
818;BME280;391;51.052;6.954;2022-08-19T11:27:04;100938.38;;;26.03;50.88
818;BME280;391;51.052;6.954;2022-08-19T11:29:09;100941.19;;;25.99;49.98
818;BME280;391;51.052;6.954;2022-08-19T11:31:16;100939.53;;;25.95;50.36
818;BME280;391;51.052;6.954;2022-08-19T11:33:22;100934.56;;;25.83;50.49
818;BME280;391;51.052;6.954;2022-08-19T11:35:27;100942.16;;;25.68;50.40
818;BME280;391;51.052;6.954;2022-08-19T11:37:31;100930.09;;;25.54;50.29